Аэропорт: Богашево. Томск

ICAO: UNTT

METAR:
2020-08-09 22:30:00
UNTT 092230Z 06002MPS CAVOK 15/13 Q1004 R21/090060 NOSIG RMK QFE738
METAR:
2020-08-09 19:58:00
TAF UNTT 091958Z 0921/1006 08003G08MPS 9999 SCT030 TEMPO 0922/1001 0500 FG